DLH865 ENGM-EDDF
Flight info
| Callsign | DLH865 |
|---|---|
| Flight time | 1h 48m |
| Altitude | 37000 |
| Route | VIPPA DCT RAXLU DCT RIMET/N0401F310 T157 KOKEB/N0348F230 T157 KERAX KERAX5D |
| Aircraft | A20N/M-SDE2E3FGHIRWXY/LB1 |
Departure
| Time | 2026-05-08 08:16 |
|---|---|
| Airport | Oslo-Gardermoen International Airport (ENGM) |
Arrival
| Time | 2026-05-08 10:04 |
|---|---|
| Airport | Frankfurt Main Airport (EDDF) |
| Time | Latitude | Longitude | Altitude | Speed | Heading |
|---|---|---|---|---|---|
| 2026-05-08 07:47 | 60.19668 | 11.09983 | 681 ft | 0 kts | 107° |
| 2026-05-08 08:03 | 60.19671 | 11.09964 | 681 ft | 3 kts | 107° |
| 2026-05-08 08:03 | 60.19677 | 11.09924 | 680 ft | 3 kts | 107° |
| 2026-05-08 08:04 | 60.19683 | 11.09884 | 677 ft | 3 kts | 107° |
| 2026-05-08 08:04 | 60.19689 | 11.09844 | 679 ft | 3 kts | 107° |
| 2026-05-08 08:04 | 60.19695 | 11.09804 | 676 ft | 3 kts | 108° |
| 2026-05-08 08:04 | 60.19702 | 11.09765 | 680 ft | 3 kts | 108° |
| 2026-05-08 08:05 | 60.19708 | 11.09726 | 679 ft | 3 kts | 109° |
| 2026-05-08 08:05 | 60.19713 | 11.09700 | 678 ft | 1 kts | 108° |
| 2026-05-08 08:05 | 60.19715 | 11.09684 | 680 ft | 1 kts | 108° |
| 2026-05-08 08:05 | 60.19717 | 11.09673 | 679 ft | 0 kts | 107° |
| 2026-05-08 08:08 | 60.19717 | 11.09675 | 681 ft | 1 kts | 107° |
| 2026-05-08 08:08 | 60.19709 | 11.09714 | 681 ft | 5 kts | 117° |
| 2026-05-08 08:09 | 60.19674 | 11.09744 | 681 ft | 7 kts | 180° |
| 2026-05-08 08:09 | 60.19645 | 11.09663 | 681 ft | 9 kts | 274° |
| 2026-05-08 08:09 | 60.19666 | 11.09513 | 678 ft | 13 kts | 286° |
| 2026-05-08 08:09 | 60.19694 | 11.09313 | 681 ft | 17 kts | 286° |
| 2026-05-08 08:10 | 60.19729 | 11.09073 | 679 ft | 18 kts | 287° |
| 2026-05-08 08:10 | 60.19762 | 11.08837 | 677 ft | 14 kts | 285° |
| 2026-05-08 08:10 | 60.19790 | 11.08708 | 676 ft | 9 kts | 319° |
| 2026-05-08 08:10 | 60.19863 | 11.08724 | 677 ft | 13 kts | 16° |
| 2026-05-08 08:11 | 60.19972 | 11.08788 | 677 ft | 20 kts | 16° |
| 2026-05-08 08:11 | 60.20122 | 11.08874 | 678 ft | 24 kts | 16° |
| 2026-05-08 08:11 | 60.20287 | 11.08969 | 679 ft | 26 kts | 15° |
| 2026-05-08 08:11 | 60.20436 | 11.09054 | 678 ft | 21 kts | 16° |
| 2026-05-08 08:12 | 60.20585 | 11.09142 | 679 ft | 24 kts | 16° |
| 2026-05-08 08:12 | 60.20749 | 11.09236 | 682 ft | 25 kts | 15° |
| 2026-05-08 08:12 | 60.20905 | 11.09326 | 683 ft | 23 kts | 16° |
| 2026-05-08 08:12 | 60.21073 | 11.09423 | 683 ft | 26 kts | 16° |
| 2026-05-08 08:13 | 60.21257 | 11.09530 | 682 ft | 27 kts | 16° |
| 2026-05-08 08:13 | 60.21409 | 11.09617 | 678 ft | 19 kts | 15° |
| 2026-05-08 08:13 | 60.21524 | 11.09592 | 684 ft | 16 kts | 315° |
| 2026-05-08 08:13 | 60.21554 | 11.09464 | 678 ft | 7 kts | 286° |
| 2026-05-08 08:14 | 60.21571 | 11.09344 | 680 ft | 10 kts | 285° |
| 2026-05-08 08:14 | 60.21565 | 11.09183 | 678 ft | 13 kts | 239° |
| 2026-05-08 08:14 | 60.21512 | 11.09113 | 678 ft | 0 kts | 195° |
| 2026-05-08 08:14 | 60.21511 | 11.09113 | 678 ft | 0 kts | 197° |
| 2026-05-08 08:15 | 60.21290 | 11.08988 | 682 ft | 75 kts | 195° |
| 2026-05-08 08:15 | 60.20544 | 11.08570 | 685 ft | 143 kts | 194° |
| 2026-05-08 08:15 | 60.19528 | 11.07990 | 1227 ft | 159 kts | 194° |
| 2026-05-08 08:16 | 60.18482 | 11.07351 | 2241 ft | 154 kts | 196° |
| 2026-05-08 08:16 | 60.17437 | 11.06692 | 3092 ft | 164 kts | 202° |
| 2026-05-08 08:16 | 60.16463 | 11.05285 | 3764 ft | 184 kts | 229° |
| 2026-05-08 08:16 | 60.15814 | 11.02880 | 4501 ft | 209 kts | 243° |
| 2026-05-08 08:17 | 60.15190 | 11.00087 | 5312 ft | 229 kts | 244° |
| 2026-05-08 08:17 | 60.14462 | 10.97093 | 5988 ft | 248 kts | 233° |
| 2026-05-08 08:17 | 60.13151 | 10.94843 | 6917 ft | 253 kts | 205° |
| 2026-05-08 08:17 | 60.11489 | 10.93598 | 7992 ft | 257 kts | 198° |
| 2026-05-08 08:18 | 60.09758 | 10.92600 | 9111 ft | 261 kts | 195° |
| 2026-05-08 08:18 | 60.07994 | 10.91628 | 10174 ft | 265 kts | 196° |
| 2026-05-08 08:18 | 60.06180 | 10.90581 | 10893 ft | 281 kts | 197° |
| 2026-05-08 08:18 | 60.04225 | 10.89412 | 11325 ft | 306 kts | 197° |
| 2026-05-08 08:19 | 60.02155 | 10.88141 | 11901 ft | 321 kts | 198° |
| 2026-05-08 08:19 | 60.00007 | 10.86801 | 12801 ft | 325 kts | 198° |
| 2026-05-08 08:19 | 59.97832 | 10.85436 | 13699 ft | 331 kts | 198° |
| 2026-05-08 08:19 | 59.95614 | 10.84046 | 14501 ft | 336 kts | 198° |
| 2026-05-08 08:20 | 59.93367 | 10.82643 | 15306 ft | 340 kts | 198° |
| 2026-05-08 08:20 | 59.91127 | 10.81248 | 16124 ft | 345 kts | 198° |
| 2026-05-08 08:20 | 59.88818 | 10.79814 | 16928 ft | 349 kts | 198° |
| 2026-05-08 08:20 | 59.86480 | 10.78366 | 17714 ft | 354 kts | 198° |
| 2026-05-08 08:21 | 59.84119 | 10.76905 | 18498 ft | 358 kts | 198° |
| 2026-05-08 08:21 | 59.81724 | 10.75425 | 19150 ft | 362 kts | 198° |
| 2026-05-08 08:21 | 59.79309 | 10.73936 | 19847 ft | 365 kts | 198° |
| 2026-05-08 08:21 | 59.76867 | 10.72432 | 20530 ft | 368 kts | 198° |
| 2026-05-08 08:22 | 59.74409 | 10.70920 | 21210 ft | 372 kts | 198° |
| 2026-05-08 08:22 | 59.71928 | 10.69397 | 21867 ft | 375 kts | 198° |
| 2026-05-08 08:22 | 59.69417 | 10.67858 | 22538 ft | 379 kts | 198° |
| 2026-05-08 08:22 | 59.66889 | 10.66310 | 23192 ft | 382 kts | 198° |
| 2026-05-08 08:23 | 59.64363 | 10.64766 | 23828 ft | 386 kts | 198° |
| 2026-05-08 08:23 | 59.61787 | 10.63194 | 24374 ft | 389 kts | 198° |
| 2026-05-08 08:23 | 59.59188 | 10.61611 | 24913 ft | 392 kts | 198° |
| 2026-05-08 08:23 | 59.56567 | 10.60017 | 25436 ft | 395 kts | 198° |
| 2026-05-08 08:24 | 59.53932 | 10.58418 | 25947 ft | 398 kts | 198° |
| 2026-05-08 08:24 | 59.51270 | 10.56803 | 26435 ft | 401 kts | 198° |
| 2026-05-08 08:24 | 59.48591 | 10.55182 | 26918 ft | 404 kts | 198° |
| 2026-05-08 08:24 | 59.45893 | 10.53552 | 27389 ft | 407 kts | 198° |
| 2026-05-08 08:25 | 59.43171 | 10.51910 | 27847 ft | 410 kts | 198° |
| 2026-05-08 08:25 | 59.40430 | 10.50259 | 28291 ft | 413 kts | 198° |
| 2026-05-08 08:25 | 59.37674 | 10.48602 | 28721 ft | 416 kts | 198° |
| 2026-05-08 08:25 | 59.34894 | 10.46933 | 29133 ft | 419 kts | 198° |
| 2026-05-08 08:26 | 59.32097 | 10.45256 | 29520 ft | 422 kts | 198° |
| 2026-05-08 08:26 | 59.29426 | 10.43658 | 29891 ft | 424 kts | 198° |
| 2026-05-08 08:26 | 59.26587 | 10.41962 | 30283 ft | 427 kts | 197° |
| 2026-05-08 08:26 | 59.23735 | 10.40263 | 30644 ft | 429 kts | 197° |
| 2026-05-08 08:27 | 59.20875 | 10.38560 | 31040 ft | 431 kts | 197° |
| 2026-05-08 08:27 | 59.18007 | 10.36856 | 31440 ft | 431 kts | 197° |
| 2026-05-08 08:27 | 59.15137 | 10.35155 | 31928 ft | 430 kts | 197° |
| 2026-05-08 08:27 | 59.12283 | 10.33466 | 32454 ft | 427 kts | 197° |
| 2026-05-08 08:28 | 59.09438 | 10.31785 | 32973 ft | 425 kts | 197° |
| 2026-05-08 08:28 | 59.06616 | 10.30121 | 33478 ft | 423 kts | 197° |
| 2026-05-08 08:28 | 59.03807 | 10.28467 | 33968 ft | 420 kts | 197° |
| 2026-05-08 08:28 | 59.01014 | 10.26824 | 34420 ft | 418 kts | 197° |
| 2026-05-08 08:29 | 58.98231 | 10.25193 | 34729 ft | 419 kts | 196° |
| 2026-05-08 08:29 | 58.95396 | 10.23847 | 34994 ft | 420 kts | 191° |
| 2026-05-08 08:29 | 58.92493 | 10.23048 | 35267 ft | 422 kts | 186° |
| 2026-05-08 08:29 | 58.89557 | 10.22818 | 35528 ft | 423 kts | 180° |
| 2026-05-08 08:30 | 58.86609 | 10.22892 | 35787 ft | 424 kts | 180° |
| 2026-05-08 08:30 | 58.83650 | 10.22958 | 36046 ft | 425 kts | 181° |
| 2026-05-08 08:30 | 58.77722 | 10.23052 | 36547 ft | 427 kts | 181° |
| 2026-05-08 08:31 | 58.74752 | 10.23090 | 36787 ft | 427 kts | 181° |
| 2026-05-08 08:31 | 58.71772 | 10.23125 | 37023 ft | 428 kts | 181° |
| 2026-05-08 08:31 | 58.68829 | 10.23159 | 37240 ft | 429 kts | 181° |
| 2026-05-08 08:31 | 58.65842 | 10.23193 | 37266 ft | 428 kts | 181° |
| 2026-05-08 08:32 | 58.59886 | 10.23263 | 37271 ft | 427 kts | 181° |
| 2026-05-08 08:32 | 58.53924 | 10.23332 | 37264 ft | 427 kts | 181° |
| 2026-05-08 08:33 | 58.47976 | 10.23401 | 37264 ft | 427 kts | 181° |
| 2026-05-08 08:33 | 58.42065 | 10.23470 | 37263 ft | 428 kts | 181° |
| 2026-05-08 08:34 | 58.36110 | 10.23539 | 37260 ft | 428 kts | 181° |
| 2026-05-08 08:34 | 58.30156 | 10.23607 | 37267 ft | 428 kts | 181° |
| 2026-05-08 08:35 | 58.24197 | 10.23676 | 37263 ft | 428 kts | 181° |
| 2026-05-08 08:35 | 58.18240 | 10.23744 | 37264 ft | 428 kts | 180° |
| 2026-05-08 08:36 | 58.12317 | 10.23812 | 37260 ft | 428 kts | 180° |
| 2026-05-08 08:36 | 58.06351 | 10.23879 | 37265 ft | 428 kts | 180° |
| 2026-05-08 08:37 | 58.00391 | 10.23947 | 37267 ft | 428 kts | 180° |
| 2026-05-08 08:37 | 57.94427 | 10.24015 | 37263 ft | 429 kts | 180° |
| 2026-05-08 08:38 | 57.88458 | 10.24082 | 37260 ft | 429 kts | 180° |
| 2026-05-08 08:38 | 57.82491 | 10.24149 | 37264 ft | 429 kts | 180° |
| 2026-05-08 08:39 | 57.76550 | 10.24215 | 37260 ft | 429 kts | 180° |
| 2026-05-08 08:39 | 57.70536 | 10.24282 | 37257 ft | 429 kts | 180° |
| 2026-05-08 08:40 | 57.64590 | 10.24349 | 37259 ft | 430 kts | 180° |
| 2026-05-08 08:40 | 57.58604 | 10.24415 | 37258 ft | 430 kts | 180° |
| 2026-05-08 08:41 | 57.53630 | 10.24470 | 37259 ft | 431 kts | 180° |
| 2026-05-08 08:41 | 57.47624 | 10.24537 | 37265 ft | 431 kts | 180° |
| 2026-05-08 08:42 | 57.41605 | 10.24603 | 37267 ft | 431 kts | 180° |
| 2026-05-08 08:42 | 57.35597 | 10.24668 | 37265 ft | 432 kts | 180° |
| 2026-05-08 08:43 | 57.29682 | 10.24732 | 37266 ft | 432 kts | 180° |
| 2026-05-08 08:43 | 57.23641 | 10.24798 | 37268 ft | 432 kts | 180° |
| 2026-05-08 08:44 | 57.17629 | 10.24863 | 37268 ft | 432 kts | 180° |
| 2026-05-08 08:44 | 57.11612 | 10.24928 | 37269 ft | 432 kts | 180° |
| 2026-05-08 08:45 | 57.05591 | 10.24993 | 37266 ft | 432 kts | 180° |
| 2026-05-08 08:45 | 56.99572 | 10.25058 | 37263 ft | 432 kts | 180° |
| 2026-05-08 08:46 | 56.93559 | 10.25123 | 37258 ft | 432 kts | 180° |
| 2026-05-08 08:46 | 56.87538 | 10.25187 | 37258 ft | 432 kts | 180° |
| 2026-05-08 08:47 | 56.81550 | 10.25250 | 37257 ft | 432 kts | 180° |
| 2026-05-08 08:47 | 56.75526 | 10.25314 | 37258 ft | 432 kts | 180° |
| 2026-05-08 08:48 | 56.69505 | 10.25378 | 37252 ft | 433 kts | 180° |
| 2026-05-08 08:48 | 56.63483 | 10.25441 | 37254 ft | 433 kts | 180° |
| 2026-05-08 08:49 | 56.57449 | 10.25505 | 37256 ft | 433 kts | 180° |
| 2026-05-08 08:49 | 56.51419 | 10.25568 | 37257 ft | 433 kts | 180° |
| 2026-05-08 08:50 | 56.45415 | 10.25630 | 37257 ft | 434 kts | 180° |
| 2026-05-08 08:50 | 56.39371 | 10.25692 | 37264 ft | 434 kts | 180° |
| 2026-05-08 08:51 | 56.33325 | 10.25755 | 37265 ft | 434 kts | 180° |
| 2026-05-08 08:51 | 56.27283 | 10.25818 | 37263 ft | 434 kts | 180° |
| 2026-05-08 08:52 | 56.21231 | 10.25880 | 37265 ft | 435 kts | 180° |
| 2026-05-08 08:52 | 56.15177 | 10.25942 | 37261 ft | 435 kts | 180° |
| 2026-05-08 08:53 | 56.09163 | 10.26004 | 37258 ft | 435 kts | 180° |
| 2026-05-08 08:53 | 56.03108 | 10.26066 | 37255 ft | 435 kts | 180° |
| 2026-05-08 08:54 | 55.97048 | 10.26128 | 37260 ft | 435 kts | 180° |
| 2026-05-08 08:54 | 55.90985 | 10.26189 | 37275 ft | 436 kts | 180° |
| 2026-05-08 08:55 | 55.84922 | 10.26251 | 37254 ft | 436 kts | 180° |
| 2026-05-08 08:55 | 55.78851 | 10.26312 | 37253 ft | 436 kts | 180° |
| 2026-05-08 08:56 | 55.72826 | 10.26372 | 37246 ft | 436 kts | 180° |
| 2026-05-08 08:56 | 55.66760 | 10.26434 | 37260 ft | 436 kts | 180° |
| 2026-05-08 08:57 | 55.60690 | 10.26495 | 37257 ft | 436 kts | 180° |
| 2026-05-08 08:57 | 55.54612 | 10.26555 | 37279 ft | 437 kts | 180° |
| 2026-05-08 08:58 | 55.48530 | 10.26615 | 37267 ft | 437 kts | 180° |
| 2026-05-08 08:58 | 55.42436 | 10.26677 | 37272 ft | 438 kts | 180° |
| 2026-05-08 08:59 | 55.36334 | 10.26737 | 37263 ft | 438 kts | 180° |
| 2026-05-08 08:59 | 55.30238 | 10.26796 | 37264 ft | 438 kts | 180° |
| 2026-05-08 09:00 | 55.24161 | 10.26856 | 37264 ft | 439 kts | 180° |
| 2026-05-08 09:00 | 55.18058 | 10.26917 | 37261 ft | 439 kts | 180° |
| 2026-05-08 09:01 | 55.11948 | 10.26976 | 37260 ft | 439 kts | 180° |
| 2026-05-08 09:01 | 55.05844 | 10.27035 | 37265 ft | 439 kts | 180° |
| 2026-05-08 09:02 | 54.99728 | 10.27095 | 37253 ft | 439 kts | 180° |
| 2026-05-08 09:02 | 54.93624 | 10.27154 | 37243 ft | 439 kts | 180° |
| 2026-05-08 09:03 | 54.87518 | 10.27212 | 37241 ft | 439 kts | 180° |
| 2026-05-08 09:03 | 54.81411 | 10.27271 | 37240 ft | 439 kts | 180° |
| 2026-05-08 09:04 | 54.75303 | 10.27329 | 37239 ft | 439 kts | 181° |
| 2026-05-08 09:04 | 54.69190 | 10.27367 | 37240 ft | 439 kts | 181° |
| 2026-05-08 09:05 | 54.63120 | 10.27248 | 37234 ft | 439 kts | 182° |
| 2026-05-08 09:05 | 54.57008 | 10.27119 | 37232 ft | 439 kts | 181° |
| 2026-05-08 09:06 | 54.50890 | 10.27008 | 37229 ft | 439 kts | 181° |
| 2026-05-08 09:06 | 54.44770 | 10.26904 | 37233 ft | 440 kts | 182° |
| 2026-05-08 09:07 | 54.38683 | 10.26800 | 37228 ft | 440 kts | 182° |
| 2026-05-08 09:07 | 54.32551 | 10.26695 | 37235 ft | 441 kts | 182° |
| 2026-05-08 09:08 | 54.26418 | 10.26591 | 37242 ft | 441 kts | 182° |
| 2026-05-08 09:08 | 54.20272 | 10.26487 | 37239 ft | 442 kts | 182° |
| 2026-05-08 09:09 | 54.14122 | 10.26382 | 37238 ft | 442 kts | 182° |
| 2026-05-08 09:09 | 54.07958 | 10.26279 | 37236 ft | 443 kts | 182° |
| 2026-05-08 09:10 | 54.01901 | 10.26179 | 37236 ft | 443 kts | 182° |
| 2026-05-08 09:10 | 53.95737 | 10.26075 | 37237 ft | 443 kts | 182° |
| 2026-05-08 09:11 | 53.89569 | 10.25972 | 37232 ft | 443 kts | 182° |
| 2026-05-08 09:11 | 53.83408 | 10.25871 | 37224 ft | 443 kts | 182° |
| 2026-05-08 09:12 | 53.77251 | 10.25768 | 37217 ft | 442 kts | 182° |
| 2026-05-08 09:12 | 53.71136 | 10.25667 | 37211 ft | 442 kts | 182° |
| 2026-05-08 09:13 | 53.64982 | 10.25565 | 37208 ft | 442 kts | 182° |
| 2026-05-08 09:13 | 53.58835 | 10.25465 | 37203 ft | 442 kts | 182° |
| 2026-05-08 09:14 | 53.52680 | 10.25363 | 37202 ft | 442 kts | 182° |
| 2026-05-08 09:14 | 53.46524 | 10.25263 | 37201 ft | 442 kts | 182° |
| 2026-05-08 09:15 | 53.40374 | 10.25163 | 37198 ft | 442 kts | 182° |
| 2026-05-08 09:15 | 53.34221 | 10.25062 | 37193 ft | 442 kts | 182° |
| 2026-05-08 09:16 | 53.28094 | 10.24963 | 37189 ft | 442 kts | 182° |
| 2026-05-08 09:16 | 53.21932 | 10.24863 | 37184 ft | 442 kts | 182° |
| 2026-05-08 09:17 | 53.15816 | 10.24765 | 37182 ft | 443 kts | 182° |
| 2026-05-08 09:17 | 53.09658 | 10.24666 | 37180 ft | 443 kts | 182° |
| 2026-05-08 09:18 | 53.03486 | 10.24568 | 37181 ft | 443 kts | 182° |
| 2026-05-08 09:18 | 52.97316 | 10.24469 | 37180 ft | 444 kts | 182° |
| 2026-05-08 09:19 | 52.91134 | 10.24370 | 37183 ft | 444 kts | 182° |
| 2026-05-08 09:19 | 52.84949 | 10.24272 | 37183 ft | 444 kts | 183° |
| 2026-05-08 09:20 | 52.78760 | 10.24174 | 37186 ft | 444 kts | 183° |
| 2026-05-08 09:20 | 52.72572 | 10.24076 | 37186 ft | 444 kts | 183° |
| 2026-05-08 09:21 | 52.66391 | 10.23979 | 37189 ft | 445 kts | 183° |
| 2026-05-08 09:23 | 52.44773 | 10.23641 | 37185 ft | 444 kts | 183° |
| 2026-05-08 09:23 | 52.38580 | 10.23544 | 37182 ft | 444 kts | 183° |
| 2026-05-08 09:24 | 52.32388 | 10.23448 | 37181 ft | 444 kts | 183° |
| 2026-05-08 09:24 | 52.26295 | 10.23354 | 37187 ft | 444 kts | 183° |
| 2026-05-08 09:25 | 52.20116 | 10.23259 | 37181 ft | 444 kts | 183° |
| 2026-05-08 09:25 | 52.13977 | 10.23164 | 37175 ft | 444 kts | 183° |
| 2026-05-08 09:26 | 52.07801 | 10.23069 | 37173 ft | 444 kts | 183° |
| 2026-05-08 09:26 | 52.01623 | 10.22974 | 37170 ft | 444 kts | 183° |
| 2026-05-08 09:27 | 51.95454 | 10.22880 | 37172 ft | 443 kts | 183° |
| 2026-05-08 09:27 | 51.89282 | 10.22786 | 37170 ft | 443 kts | 183° |
| 2026-05-08 09:28 | 51.83114 | 10.22692 | 37172 ft | 443 kts | 183° |
| 2026-05-08 09:28 | 51.77992 | 10.22614 | 37112 ft | 441 kts | 183° |
| 2026-05-08 09:28 | 51.74934 | 10.22569 | 36761 ft | 438 kts | 183° |
| 2026-05-08 09:29 | 51.71891 | 10.22524 | 36160 ft | 437 kts | 183° |
| 2026-05-08 09:29 | 51.68840 | 10.22477 | 35491 ft | 437 kts | 183° |
| 2026-05-08 09:29 | 51.65799 | 10.22431 | 34808 ft | 438 kts | 183° |
| 2026-05-08 09:29 | 51.62745 | 10.22385 | 34106 ft | 438 kts | 183° |
| 2026-05-08 09:30 | 51.59683 | 10.22338 | 33270 ft | 439 kts | 183° |
| 2026-05-08 09:30 | 51.56671 | 10.22293 | 32653 ft | 439 kts | 183° |
| 2026-05-08 09:30 | 51.53604 | 10.22246 | 32196 ft | 444 kts | 183° |
| 2026-05-08 09:30 | 51.50498 | 10.22197 | 31754 ft | 448 kts | 183° |
| 2026-05-08 09:31 | 51.47375 | 10.22151 | 31314 ft | 448 kts | 183° |
| 2026-05-08 09:31 | 51.44253 | 10.22105 | 30886 ft | 448 kts | 183° |
| 2026-05-08 09:31 | 51.41138 | 10.22059 | 30466 ft | 447 kts | 183° |
| 2026-05-08 09:31 | 51.38037 | 10.22014 | 30008 ft | 444 kts | 183° |
| 2026-05-08 09:32 | 51.34964 | 10.21969 | 29514 ft | 440 kts | 183° |
| 2026-05-08 09:32 | 51.31911 | 10.21923 | 29038 ft | 436 kts | 183° |
| 2026-05-08 09:32 | 51.28889 | 10.21863 | 28565 ft | 434 kts | 183° |
| 2026-05-08 09:32 | 51.25873 | 10.21798 | 28064 ft | 431 kts | 183° |
| 2026-05-08 09:33 | 51.22883 | 10.21733 | 27585 ft | 428 kts | 183° |
| 2026-05-08 09:33 | 51.19920 | 10.21670 | 27109 ft | 424 kts | 183° |
| 2026-05-08 09:33 | 51.16975 | 10.21608 | 26639 ft | 421 kts | 183° |
| 2026-05-08 09:33 | 51.14055 | 10.21548 | 26174 ft | 418 kts | 183° |
| 2026-05-08 09:34 | 51.11150 | 10.21492 | 25728 ft | 416 kts | 183° |
| 2026-05-08 09:34 | 51.08298 | 10.21441 | 25293 ft | 414 kts | 183° |
| 2026-05-08 09:34 | 51.05425 | 10.21391 | 24848 ft | 412 kts | 183° |
| 2026-05-08 09:34 | 51.02565 | 10.21340 | 24416 ft | 409 kts | 183° |
| 2026-05-08 09:35 | 50.99724 | 10.21290 | 23987 ft | 407 kts | 183° |
| 2026-05-08 09:35 | 50.96900 | 10.21239 | 23538 ft | 405 kts | 183° |
| 2026-05-08 09:35 | 50.94088 | 10.21189 | 23034 ft | 402 kts | 182° |
| 2026-05-08 09:35 | 50.91302 | 10.21139 | 22538 ft | 399 kts | 182° |
| 2026-05-08 09:36 | 50.88540 | 10.21090 | 22067 ft | 395 kts | 182° |
| 2026-05-08 09:36 | 50.85797 | 10.21040 | 21577 ft | 393 kts | 182° |
| 2026-05-08 09:36 | 50.83096 | 10.20604 | 21108 ft | 387 kts | 196° |
| 2026-05-08 09:36 | 50.80627 | 10.18994 | 20647 ft | 381 kts | 213° |
| 2026-05-08 09:37 | 50.78627 | 10.16395 | 20201 ft | 376 kts | 230° |
| 2026-05-08 09:37 | 50.77178 | 10.12989 | 19755 ft | 372 kts | 244° |
| 2026-05-08 09:37 | 50.76023 | 10.09332 | 19315 ft | 371 kts | 244° |
| 2026-05-08 09:37 | 50.74876 | 10.05699 | 18887 ft | 368 kts | 244° |
| 2026-05-08 09:38 | 50.73735 | 10.02102 | 18458 ft | 366 kts | 244° |
| 2026-05-08 09:38 | 50.72590 | 9.98513 | 17973 ft | 364 kts | 244° |
| 2026-05-08 09:38 | 50.71454 | 9.94961 | 17493 ft | 361 kts | 244° |
| 2026-05-08 09:38 | 50.70322 | 9.91431 | 17013 ft | 359 kts | 244° |
| 2026-05-08 09:39 | 50.69197 | 9.87930 | 16541 ft | 356 kts | 244° |
| 2026-05-08 09:39 | 50.68080 | 9.84459 | 16082 ft | 355 kts | 244° |
| 2026-05-08 09:39 | 50.66965 | 9.80998 | 15625 ft | 352 kts | 244° |
| 2026-05-08 09:39 | 50.65860 | 9.77571 | 15175 ft | 350 kts | 243° |
| 2026-05-08 09:40 | 50.64760 | 9.74166 | 14733 ft | 348 kts | 243° |
| 2026-05-08 09:40 | 50.63639 | 9.70794 | 14293 ft | 346 kts | 238° |
| 2026-05-08 09:40 | 50.62098 | 9.67891 | 13852 ft | 345 kts | 221° |
| 2026-05-08 09:40 | 50.60084 | 9.65854 | 13367 ft | 345 kts | 204° |
| 2026-05-08 09:41 | 50.57860 | 9.64482 | 12900 ft | 343 kts | 202° |
| 2026-05-08 09:41 | 50.55640 | 9.63142 | 12429 ft | 340 kts | 202° |
| 2026-05-08 09:41 | 50.53438 | 9.61808 | 11969 ft | 338 kts | 202° |
| 2026-05-08 09:41 | 50.51244 | 9.60476 | 11499 ft | 337 kts | 202° |
| 2026-05-08 09:42 | 50.49131 | 9.58954 | 11043 ft | 332 kts | 215° |
| 2026-05-08 09:42 | 50.47525 | 9.56506 | 10880 ft | 316 kts | 236° |
| 2026-05-08 09:42 | 50.46611 | 9.53478 | 10769 ft | 301 kts | 253° |
| 2026-05-08 09:42 | 50.46032 | 9.50401 | 10651 ft | 288 kts | 253° |
| 2026-05-08 09:43 | 50.45479 | 9.47458 | 10344 ft | 283 kts | 253° |
| 2026-05-08 09:43 | 50.44918 | 9.44483 | 10170 ft | 281 kts | 253° |
| 2026-05-08 09:43 | 50.44367 | 9.41565 | 10132 ft | 283 kts | 253° |
| 2026-05-08 09:43 | 50.43807 | 9.38609 | 10133 ft | 282 kts | 253° |
| 2026-05-08 09:44 | 50.43246 | 9.35654 | 10134 ft | 283 kts | 253° |
| 2026-05-08 09:44 | 50.42683 | 9.32696 | 10136 ft | 282 kts | 253° |
| 2026-05-08 09:44 | 50.42122 | 9.29749 | 10131 ft | 282 kts | 253° |
| 2026-05-08 09:44 | 50.41508 | 9.26819 | 10123 ft | 282 kts | 245° |
| 2026-05-08 09:45 | 50.40385 | 9.24314 | 10121 ft | 283 kts | 224° |
| 2026-05-08 09:45 | 50.38778 | 9.22530 | 10122 ft | 284 kts | 212° |
| 2026-05-08 09:45 | 50.37087 | 9.20917 | 10123 ft | 284 kts | 212° |
| 2026-05-08 09:45 | 50.35402 | 9.19301 | 10122 ft | 284 kts | 212° |
| 2026-05-08 09:46 | 50.33726 | 9.17687 | 10021 ft | 282 kts | 212° |
| 2026-05-08 09:46 | 50.32056 | 9.16074 | 9720 ft | 281 kts | 212° |
| 2026-05-08 09:46 | 50.30390 | 9.14465 | 9424 ft | 281 kts | 212° |
| 2026-05-08 09:46 | 50.28732 | 9.12861 | 9182 ft | 279 kts | 213° |
| 2026-05-08 09:47 | 50.27314 | 9.10881 | 9126 ft | 278 kts | 232° |
| 2026-05-08 09:47 | 50.26388 | 9.08235 | 9126 ft | 279 kts | 250° |
| 2026-05-08 09:47 | 50.25736 | 9.05375 | 9120 ft | 279 kts | 250° |
| 2026-05-08 09:47 | 50.25080 | 9.02524 | 9124 ft | 279 kts | 250° |
| 2026-05-08 09:48 | 50.24531 | 9.00161 | 9124 ft | 279 kts | 250° |
| 2026-05-08 09:48 | 50.23868 | 8.97319 | 9079 ft | 277 kts | 250° |
| 2026-05-08 09:48 | 50.23208 | 8.94500 | 8813 ft | 276 kts | 250° |
| 2026-05-08 09:48 | 50.22548 | 8.91691 | 8444 ft | 274 kts | 250° |
| 2026-05-08 09:49 | 50.21897 | 8.88919 | 8183 ft | 270 kts | 250° |
| 2026-05-08 09:49 | 50.21238 | 8.86120 | 8130 ft | 275 kts | 250° |
| 2026-05-08 09:49 | 50.20579 | 8.83323 | 8130 ft | 274 kts | 250° |
| 2026-05-08 09:49 | 50.19921 | 8.80533 | 8128 ft | 274 kts | 250° |
| 2026-05-08 09:50 | 50.19262 | 8.77747 | 8131 ft | 273 kts | 250° |
| 2026-05-08 09:50 | 50.18602 | 8.74960 | 8129 ft | 274 kts | 249° |
| 2026-05-08 09:50 | 50.17953 | 8.72216 | 8067 ft | 272 kts | 249° |
| 2026-05-08 09:50 | 50.17300 | 8.69464 | 7777 ft | 271 kts | 249° |
| 2026-05-08 09:51 | 50.16647 | 8.66713 | 7416 ft | 269 kts | 250° |
| 2026-05-08 09:51 | 50.16002 | 8.64001 | 7184 ft | 266 kts | 250° |
| 2026-05-08 09:51 | 50.15350 | 8.61265 | 7134 ft | 270 kts | 250° |
| 2026-05-08 09:51 | 50.14695 | 8.58517 | 7130 ft | 270 kts | 249° |
| 2026-05-08 09:52 | 50.14040 | 8.55771 | 7130 ft | 270 kts | 249° |
| 2026-05-08 09:52 | 50.13385 | 8.53028 | 7129 ft | 270 kts | 249° |
| 2026-05-08 09:52 | 50.12731 | 8.50292 | 7022 ft | 270 kts | 249° |
| 2026-05-08 09:52 | 50.12075 | 8.47555 | 6773 ft | 267 kts | 249° |
| 2026-05-08 09:53 | 50.11433 | 8.44877 | 6518 ft | 261 kts | 249° |
| 2026-05-08 09:53 | 50.10806 | 8.42269 | 6262 ft | 257 kts | 249° |
| 2026-05-08 09:53 | 50.10172 | 8.39639 | 6014 ft | 259 kts | 249° |
| 2026-05-08 09:53 | 50.09541 | 8.37029 | 5745 ft | 257 kts | 249° |
| 2026-05-08 09:54 | 50.08908 | 8.34416 | 5484 ft | 257 kts | 249° |
| 2026-05-08 09:54 | 50.08285 | 8.31848 | 5222 ft | 250 kts | 249° |
| 2026-05-08 09:54 | 50.07681 | 8.29355 | 5019 ft | 244 kts | 249° |
| 2026-05-08 09:54 | 50.07074 | 8.26855 | 5002 ft | 248 kts | 249° |
| 2026-05-08 09:55 | 50.06484 | 8.24427 | 4995 ft | 236 kts | 249° |
| 2026-05-08 09:55 | 50.05905 | 8.22052 | 4997 ft | 237 kts | 249° |
| 2026-05-08 09:55 | 50.05320 | 8.19652 | 4999 ft | 237 kts | 249° |
| 2026-05-08 09:55 | 50.04737 | 8.17260 | 4999 ft | 237 kts | 249° |
| 2026-05-08 09:56 | 50.04151 | 8.14862 | 4995 ft | 237 kts | 249° |
| 2026-05-08 09:56 | 50.03565 | 8.12462 | 4995 ft | 237 kts | 249° |
| 2026-05-08 09:56 | 50.02978 | 8.10062 | 4998 ft | 237 kts | 249° |
| 2026-05-08 09:56 | 50.02286 | 8.07749 | 4997 ft | 236 kts | 232° |
| 2026-05-08 09:57 | 49.99396 | 8.05892 | 4999 ft | 235 kts | 175° |
| 2026-05-08 09:57 | 49.97762 | 8.06111 | 4999 ft | 235 kts | 174° |
| 2026-05-08 09:57 | 49.96172 | 8.06608 | 4967 ft | 234 kts | 152° |
| 2026-05-08 09:58 | 49.95057 | 8.08323 | 4845 ft | 232 kts | 114° |
| 2026-05-08 09:58 | 49.94799 | 8.10797 | 4725 ft | 231 kts | 85° |
| 2026-05-08 09:58 | 49.95106 | 8.13210 | 4604 ft | 231 kts | 73° |
| 2026-05-08 09:58 | 49.95620 | 8.15561 | 4462 ft | 230 kts | 70° |
| 2026-05-08 09:59 | 49.96171 | 8.17893 | 4346 ft | 229 kts | 70° |
| 2026-05-08 09:59 | 49.96707 | 8.20175 | 4220 ft | 220 kts | 70° |
| 2026-05-08 09:59 | 49.97220 | 8.22351 | 4091 ft | 210 kts | 70° |
| 2026-05-08 09:59 | 49.97714 | 8.24445 | 3904 ft | 204 kts | 70° |
| 2026-05-08 10:00 | 49.98190 | 8.26457 | 3686 ft | 194 kts | 70° |
| 2026-05-08 10:00 | 49.98650 | 8.28404 | 3420 ft | 189 kts | 70° |
| 2026-05-08 10:00 | 49.99094 | 8.30281 | 3179 ft | 181 kts | 70° |
| 2026-05-08 10:00 | 49.99525 | 8.32102 | 2883 ft | 179 kts | 70° |
| 2026-05-08 10:01 | 49.99942 | 8.33856 | 2634 ft | 165 kts | 70° |
| 2026-05-08 10:01 | 50.00334 | 8.35514 | 2395 ft | 158 kts | 70° |
| 2026-05-08 10:01 | 50.00706 | 8.37083 | 2176 ft | 156 kts | 70° |
| 2026-05-08 10:01 | 50.01082 | 8.38673 | 1948 ft | 157 kts | 70° |
| 2026-05-08 10:02 | 50.01445 | 8.40199 | 1725 ft | 142 kts | 70° |
| 2026-05-08 10:02 | 50.01774 | 8.41578 | 1507 ft | 130 kts | 70° |
| 2026-05-08 10:02 | 50.02077 | 8.42854 | 1329 ft | 122 kts | 70° |
| 2026-05-08 10:02 | 50.02372 | 8.44104 | 1155 ft | 124 kts | 70° |
| 2026-05-08 10:03 | 50.02664 | 8.45348 | 965 ft | 122 kts | 70° |
| 2026-05-08 10:03 | 50.02958 | 8.46595 | 818 ft | 123 kts | 69° |
| 2026-05-08 10:03 | 50.03257 | 8.47826 | 656 ft | 121 kts | 69° |
| 2026-05-08 10:03 | 50.03549 | 8.49051 | 466 ft | 120 kts | 69° |
| 2026-05-08 10:04 | 50.03843 | 8.50275 | 355 ft | 118 kts | 70° |
| 2026-05-08 10:04 | 50.04074 | 8.51247 | 353 ft | 70 kts | 69° |
| 2026-05-08 10:04 | 50.04196 | 8.51756 | 351 ft | 29 kts | 70° |
| 2026-05-08 10:04 | 50.04237 | 8.52045 | 348 ft | 19 kts | 89° |
| 2026-05-08 10:05 | 50.04227 | 8.52242 | 353 ft | 13 kts | 101° |
| 2026-05-08 10:05 | 50.04217 | 8.52322 | 351 ft | 0 kts | 100° |
| 2026-05-08 10:06 | 50.04212 | 8.52371 | 353 ft | 11 kts | 100° |
| 2026-05-08 10:06 | 50.04193 | 8.52531 | 357 ft | 18 kts | 99° |
| 2026-05-08 10:06 | 50.04215 | 8.52738 | 352 ft | 21 kts | 70° |
| 2026-05-08 10:06 | 50.04269 | 8.52962 | 350 ft | 23 kts | 69° |
| 2026-05-08 10:07 | 50.04328 | 8.53207 | 355 ft | 25 kts | 70° |
| 2026-05-08 10:07 | 50.04382 | 8.53436 | 351 ft | 6 kts | 70° |
| 2026-05-08 10:07 | 50.04395 | 8.53515 | 357 ft | 11 kts | 82° |
| 2026-05-08 10:07 | 50.04406 | 8.53677 | 356 ft | 18 kts | 84° |
| 2026-05-08 10:08 | 50.04419 | 8.53887 | 350 ft | 21 kts | 84° |
| 2026-05-08 10:08 | 50.04431 | 8.54069 | 352 ft | 14 kts | 84° |
| 2026-05-08 10:08 | 50.04442 | 8.54231 | 358 ft | 17 kts | 83° |
| 2026-05-08 10:08 | 50.04454 | 8.54417 | 350 ft | 15 kts | 89° |
| 2026-05-08 10:09 | 50.04429 | 8.54592 | 353 ft | 18 kts | 114° |
| 2026-05-08 10:09 | 50.04345 | 8.54741 | 350 ft | 13 kts | 145° |
| 2026-05-08 10:09 | 50.04258 | 8.54802 | 352 ft | 15 kts | 161° |
| 2026-05-08 10:09 | 50.04148 | 8.54864 | 357 ft | 12 kts | 159° |
| 2026-05-08 10:10 | 50.04092 | 8.54897 | 354 ft | 7 kts | 159° |
| 2026-05-08 10:10 | 50.04036 | 8.54932 | 358 ft | 11 kts | 150° |
| 2026-05-08 10:10 | 50.04025 | 8.55045 | 357 ft | 13 kts | 69° |
| 2026-05-08 10:10 | 50.04060 | 8.55192 | 353 ft | 16 kts | 69° |
| 2026-05-08 10:11 | 50.04103 | 8.55368 | 359 ft | 19 kts | 70° |
| 2026-05-08 10:11 | 50.04151 | 8.55571 | 356 ft | 21 kts | 70° |
| 2026-05-08 10:11 | 50.04196 | 8.55760 | 354 ft | 10 kts | 69° |
| 2026-05-08 10:11 | 50.04224 | 8.55878 | 354 ft | 13 kts | 69° |
| 2026-05-08 10:12 | 50.04259 | 8.56020 | 358 ft | 12 kts | 70° |
| 2026-05-08 10:12 | 50.04331 | 8.56062 | 355 ft | 14 kts | 339° |
| 2026-05-08 10:12 | 50.04400 | 8.56029 | 357 ft | 10 kts | 356° |
| 2026-05-08 10:12 | 50.04451 | 8.56110 | 359 ft | 13 kts | 70° |
| 2026-05-08 10:13 | 50.04473 | 8.56203 | 361 ft | 3 kts | 70° |
| 2026-05-08 10:13 | 50.04482 | 8.56249 | 353 ft | 3 kts | 83° |
| 2026-05-08 10:13 | 50.04464 | 8.56263 | 360 ft | 4 kts | 175° |
| 2026-05-08 10:13 | 50.04446 | 8.56264 | 356 ft | 2 kts | 174° |
| 2026-05-08 10:14 | 50.04432 | 8.56270 | 361 ft | 0 kts | 166° |
| 2026-05-08 10:14 | 50.04423 | 8.56274 | 358 ft | 2 kts | 165° |
| 2026-05-08 10:14 | 50.04417 | 8.56276 | 356 ft | 0 kts | 164° |